Weather observations for the past three days for
Norfolk, Stefan Memorial Airport
Metric (Imperial)
Date Time (cdt) Wind (kph) Vis. (km) Weather Sky Cond. Temperature (ºC) Relative Humidity Wind Chill (°C) Heat Index (°C) Pressure Precipitation (cm)
Air Dwpt 6 hour altimeter (cm) sea level (mb) 1 hr 3 hr 6 hr
Max. Min.
08 15:56 NW 20 G 56 16.09 Mostly Cloudy BKN110 26.1 0 18% 25 75.46 1005.5
08 14:56 W 22 16.09 Partly Cloudy SCT100 25 0.6 20% 25 75.51 1005.9
08 13:56 W 26 G 41 16.09 Partly Cloudy SCT110 25 2.2 23% 25 75.54 1006.3
08 12:56 W 13 G 31 16.09 Fair CLR 23.9 0.6 24.4 8.9 22% 25 75.57 1006.9
08 11:56 NW 15 G 33 16.09 Fair CLR 23.3 1.7 24% 75.64 1007.7
08 10:56 W 22 16.09 Fair CLR 21.7 2.2 28% 75.67 1008.3
08 09:56 W 13 16.09 Fair CLR 20 2.2 31% 75.72 1009.0
08 08:56 W 7 16.09 Fair CLR 16.7 2.8 40% 75.72 1009.2
08 07:56 Calm 16.09 Fair CLR 12.8 1.7 47% 75.72 1009.1
08 06:56 Calm 16.09 Fair CLR 8.9 1.7 11.7 8.9 61% 75.67 1008.7
08 05:56 Calm 16.09 Mostly Cloudy BKN120 10.6 -1.7 43% 75.69 1008.9
08 04:56 S 15 16.09 Overcast OVC100 11.7 -2.2 38% 75.72 1008.9
08 03:56 Calm 16.09 Overcast FEW080 OVC100 10.6 0.6 50% 75.72 1009.2
08 02:56 SE 6 16.09 Mostly Cloudy BKN110 10 1.1 54% 75.72 1009.2
08 01:56 S 6 16.09 Overcast FEW090 OVC110 10 -0.6 48% 75.79 1010.1
08 00:56 Calm 16.09 Mostly Cloudy BKN120 11.1 -4.4 20 6.1 34% 75.77 1010.0
07 23:56 E 6 16.09 Overcast OVC120 11.1 -2.8 38% 75.74 1009.7
07 22:56 E 6 16.09 Overcast OVC110 11.7 -3.3 35% 75.74 1009.9
07 21:56 SE 7 16.09 Fair CLR 9.4 -3.3 41% 9 75.74 1010.0
07 20:56 Calm 16.09 Fair CLR 13.9 -5 27% 75.72 1009.3
07 19:56 N 7 16.09 Fair CLR 17.2 -5 22% 75.69 1009.0
07 18:56 NW 15 16.09 Fair CLR 20 -6.7 21.1 17.8 16% 75.69 1008.9
07 17:56 NW 15 16.09 Fair CLR 20 -6.1 17% 75.69 1008.9
07 16:56 NW 15 G 30 16.09 Fair CLR 21.1 -6.1 16% 75.69 1008.9
07 15:56 NW 17 G 37 16.09 Fair CLR 20.6 -4.4 18% 75.72 1009.3
07 14:56 NW 11 G 35 16.09 Fair CLR 20 -5 18% 75.77 1009.9
07 13:56 N 11 G 33 16.09 Fair CLR 18.9 -3.9 21% 75.77 1009.9
07 12:56 Calm 16.09 Fair CLR 18.3 -0.6 18.3 3.3 28% 75.77 1010.3
07 11:56 Vrbl 7 16.09 Fair CLR 15.6 0.6 36% 75.79 1010.8
07 10:56 N 6 16.09 Fair CLR 14.4 1.7 42% 75.79 1011.1
07 09:56 NW 13 16.09 Fair CLR 12.8 1.7 47% 75.79 1010.8
07 08:56 W 11 16.09 Fair CLR 10.6 2.2 56% 75.79 1010.9
07 07:56 W 6 16.09 Fair CLR 7.2 2.2 71% 75.82 1011.2
07 06:56 Calm 16.09 A Few Clouds FEW120 5 1.7 7.2 1.7 79% 75.79 1010.8
07 05:56 SW 11 16.09 Partly Cloudy SCT120 5 1.7 79% 3 75.79 1010.8
07 04:56 W 11 16.09 Fair CLR 4.4 1.1 79% 2 75.82 1011.3
07 03:56 SW 13 16.09 Fair CLR 6.1 1.1 71% 4 75.84 1011.6
07 02:56 SW 24 16.09 Fair CLR 6.7 0.6 65% 3 75.9 1012.2
07 01:56 SW 17 16.09 Fair CLR 6.7 -0.6 60% 4 75.97 1013.2
07 00:56 Calm 16.09 Fair CLR 2.2 -3.9 15 0.6 64% 76.05 1014.4
06 23:56 Calm 16.09 Fair CLR 4.4 -3.9 55% 76.07 1014.9
06 22:56 S 6 16.09 Fair CLR 1.7 -3.3 70% 76.1 1015.3
06 21:56 Calm 16.09 Partly Cloudy SCT100 5.6 -5.6 45% 76.12 1015.5
05 21:56 N 15 16.09 Fair CLR 8.3 -6.1 36% 6 76.12 1015.4
05 20:56 N 15 16.09 Fair CLR 8.9 -6.1 34% 7 76.05 1014.6
05 19:56 N 24 16.09 Fair CLR 10 -6.7 30% 7 76 1013.9
05 18:56 NW 22 G 37 16.09 Fair CLR 11.1 -6.1 13.3 11.1 30% 76 1013.8
05 17:56 N 28 G 43 16.09 Fair CLR 11.7 -6.1 28% 75.97 1013.6
05 16:56 NW 28 G 37 16.09 Partly Cloudy SCT075 12.8 -5.6 28% 75.97 1013.5
Date Time (cdt) Wind (kph) Vis. (km) Weather Sky Cond. Air Dwpt Max. Min. Relative Humidity Wind Chill (°C) Heat Index (°C) altimeter (cm) sea level (mb) 1 hr 3 hr 6 hr
6 hour
Temperature (ºC) Pressure Precipitation (cm)